createdAt,value
2019-05-18T00:00:25.852Z,95003.97
2019-05-18T00:02:53.197Z,95004.78
2019-05-18T00:05:20.531Z,95004.67
2019-05-18T00:07:47.820Z,95005.28
2019-05-18T00:10:15.247Z,94999.05
2019-05-18T00:12:42.540Z,95004.69
2019-05-18T00:15:09.601Z,95001.19
2019-05-18T00:17:37.517Z,95008.83
2019-05-18T00:20:04.816Z,95010.13
2019-05-18T00:22:32.325Z,95007.13
2019-05-18T00:24:59.389Z,95013.47
2019-05-18T00:27:26.493Z,95003.62
2019-05-18T00:32:27.120Z,95002.89
2019-05-18T00:34:54.408Z,94998.77
2019-05-18T00:37:21.606Z,95002.89
2019-05-18T00:39:48.908Z,94998.66
2019-05-18T00:42:16.194Z,95002.89
2019-05-18T00:44:43.487Z,94998.47
2019-05-18T00:47:10.525Z,94994.05
2019-05-18T00:49:37.561Z,94994.15
2019-05-18T00:52:04.617Z,94993.95
2019-05-18T00:54:32.784Z,94990.84
2019-05-18T00:56:59.850Z,94995.77
2019-05-18T00:59:26.872Z,94994.88
2019-05-18T01:01:54.189Z,94997.80
2019-05-18T01:04:21.229Z,94989.95
2019-05-18T01:06:48.288Z,94994.88
2019-05-18T01:09:15.332Z,94989.45
2019-05-18T01:11:42.746Z,94988.34
2019-05-18T01:14:09.999Z,94982.92
2019-05-18T01:16:37.318Z,94979.60
2019-05-18T01:19:04.668Z,94984.63
2019-05-18T01:21:32.163Z,94975.78
2019-05-18T01:23:59.478Z,94969.05
2019-05-18T01:26:26.533Z,94968.64
2019-05-18T01:28:53.881Z,94967.64
2019-05-18T01:31:21.178Z,94969.05
2019-05-18T01:33:48.213Z,94969.35
2019-05-18T01:36:15.280Z,94965.73
2019-05-18T01:38:42.586Z,94969.95
2019-05-18T01:41:09.902Z,94973.08
2019-05-18T01:43:36.937Z,94968.65
2019-05-18T01:46:03.988Z,94965.83
2019-05-18T01:48:31.288Z,94966.64
2019-05-18T01:50:58.341Z,94962.41
2019-05-18T01:53:25.719Z,94956.37
2019-05-18T01:55:52.764Z,94958.38
2019-05-18T01:58:19.798Z,94951.55
2019-05-18T02:00:47.145Z,94947.42
2019-05-18T02:03:14.539Z,94943.50
2019-05-18T02:05:41.857Z,94944.00
2019-05-18T02:08:09.229Z,94947.31
2019-05-18T02:10:36.394Z,94944.30
2019-05-18T02:13:03.746Z,94944.40
2019-05-18T02:15:30.782Z,94945.60
2019-05-18T02:17:57.826Z,94943.89
2019-05-18T02:20:25.119Z,94941.78
2019-05-18T02:22:52.419Z,94939.97
2019-05-18T02:25:19.458Z,94934.73
2019-05-18T02:27:46.745Z,94939.06
2019-05-18T02:30:17.314Z,94934.44
2019-05-18T02:32:42.522Z,94939.77
2019-05-18T02:35:09.559Z,94943.39
2019-05-18T02:37:37.679Z,94940.37
2019-05-18T02:40:05.080Z,94943.59
2019-05-18T02:42:32.389Z,94944.20
2019-05-18T02:44:59.422Z,94946.91
2019-05-18T02:47:26.789Z,94941.67
2019-05-18T02:49:53.822Z,94947.09
2019-05-18T02:52:21.115Z,94942.97
2019-05-18T02:54:48.161Z,94945.98
2019-05-18T02:57:15.203Z,94946.38
2019-05-18T02:59:42.267Z,94940.37
2019-05-18T03:02:09.595Z,94929.69
2019-05-18T03:04:36.878Z,94929.48
2019-05-18T03:07:04.195Z,94935.42
2019-05-18T03:09:31.236Z,94935.34
2019-05-18T03:11:58.530Z,94938.97
2019-05-18T03:14:25.561Z,94932.94
2019-05-18T03:16:52.635Z,94939.66
2019-05-18T03:19:19.822Z,94936.95
2019-05-18T03:21:46.898Z,94944.89
2019-05-18T03:24:14.352Z,94942.27
2019-05-18T03:26:41.391Z,94948.13
2019-05-18T03:29:08.442Z,94947.81
2019-05-18T03:31:35.518Z,94942.19
2019-05-18T03:34:02.594Z,94948.94
2019-05-18T03:36:30.017Z,94952.46
2019-05-18T03:38:57.065Z,94955.82
2019-05-18T03:41:24.097Z,94953.83
2019-05-18T03:43:51.450Z,94951.03
2019-05-18T03:46:18.489Z,94953.13
2019-05-18T03:48:45.533Z,94958.69
2019-05-18T03:51:12.904Z,94963.65
2019-05-18T03:53:39.951Z,94959.00
2019-05-18T03:56:07.509Z,94952.88
2019-05-18T03:58:34.562Z,94950.79
2019-05-18T04:01:02.353Z,94948.09
2019-05-18T04:03:29.389Z,94953.64
2019-05-18T04:05:56.512Z,94949.36
2019-05-18T04:08:23.906Z,94952.28
2019-05-18T04:10:50.965Z,94948.77
2019-05-18T04:13:18.277Z,94953.03
2019-05-18T04:15:45.313Z,94953.59
2019-05-18T04:18:12.683Z,94958.56
2019-05-18T04:20:40.957Z,94956.52
2019-05-18T04:23:08.012Z,94949.20
2019-05-18T04:25:35.364Z,94954.60
2019-05-18T04:28:02.413Z,94957.14
2019-05-18T04:30:29.693Z,94952.52
2019-05-18T04:32:57.038Z,94961.83
2019-05-18T04:35:24.135Z,94966.48
2019-05-18T04:37:51.530Z,94964.45
2019-05-18T04:40:18.622Z,94971.77
2019-05-18T04:42:45.671Z,94970.27
2019-05-18T04:45:12.711Z,94971.19
2019-05-18T04:47:40.020Z,94969.06
2019-05-18T04:50:07.408Z,94973.41
2019-05-18T04:52:34.757Z,94977.05
2019-05-18T04:55:01.813Z,94974.09
2019-05-18T04:57:28.844Z,94974.91
2019-05-18T04:59:56.182Z,94976.98
2019-05-18T05:02:23.218Z,94978.33
2019-05-18T05:04:53.991Z,94975.94
2019-05-18T05:07:19.247Z,94979.64
2019-05-18T05:09:46.633Z,94972.59
2019-05-18T05:12:13.677Z,94978.95
2019-05-18T05:14:40.724Z,94980.81
2019-05-18T05:17:08.081Z,94979.78
2019-05-18T05:19:35.433Z,94976.14
2019-05-18T05:22:02.474Z,94981.42
2019-05-18T05:24:29.837Z,94973.38
2019-05-18T05:26:57.211Z,94971.28
2019-05-18T05:29:24.566Z,94977.33
2019-05-18T05:31:51.924Z,94971.25
2019-05-18T05:34:19.941Z,94983.10
2019-05-18T05:36:46.975Z,94983.02
2019-05-18T05:39:14.029Z,94981.55
2019-05-18T05:41:41.060Z,94983.61
2019-05-18T05:44:08.105Z,94988.28
2019-05-18T05:46:37.341Z,94990.47
2019-05-18T05:49:04.518Z,94986.52
2019-05-18T05:51:31.869Z,94987.28
2019-05-18T05:53:58.922Z,94983.78
2019-05-18T05:56:25.964Z,94981.80
2019-05-18T05:58:53.031Z,94985.84
2019-05-18T06:01:20.049Z,94990.29
2019-05-18T06:03:47.432Z,94990.84
2019-05-18T06:06:14.474Z,94994.75
2019-05-18T06:08:41.846Z,94992.98
2019-05-18T06:11:08.870Z,94991.25
2019-05-18T06:13:35.917Z,94994.02
2019-05-18T06:16:03.476Z,94994.82
2019-05-18T06:18:30.511Z,95000.63
2019-05-18T06:20:57.560Z,95001.06
2019-05-18T06:23:24.593Z,95005.18
2019-05-18T06:25:51.991Z,94998.39
2019-05-18T06:28:20.456Z,94999.70
2019-05-18T06:30:47.731Z,94995.95
2019-05-18T06:33:15.062Z,95001.30
2019-05-18T06:35:42.427Z,94998.89
2019-05-18T06:38:09.496Z,94999.41
2019-05-18T06:40:36.840Z,95000.74
2019-05-18T06:43:03.873Z,95005.55
2019-05-18T06:45:30.924Z,95004.07
2019-05-18T06:47:58.273Z,95007.77
2019-05-18T06:50:25.322Z,95004.83
2019-05-18T06:52:52.354Z,94998.50
2019-05-18T06:55:19.741Z,95010.58
2019-05-18T06:57:46.772Z,95009.29
2019-05-18T07:00:14.147Z,95003.64
2019-05-18T07:02:41.483Z,95007.28
2019-05-18T07:05:08.780Z,95000.44
2019-05-18T07:07:36.089Z,95002.47
2019-05-18T07:10:03.140Z,95002.04
2019-05-18T07:12:30.513Z,95005.84
2019-05-18T07:15:00.362Z,95009.63
2019-05-18T07:17:26.575Z,95008.19
2019-05-18T07:19:53.891Z,95003.75
2019-05-18T07:22:20.922Z,94999.75
2019-05-18T07:24:48.290Z,94999.97
2019-05-18T07:27:15.645Z,94997.01
2019-05-18T07:29:43.024Z,95000.06
2019-05-18T07:32:10.380Z,94998.38
2019-05-18T07:34:37.732Z,94999.31
2019-05-18T07:37:05.069Z,94996.04
2019-05-18T07:39:32.104Z,94990.27
2019-05-18T07:41:59.161Z,94995.30
2019-05-18T07:44:26.551Z,94991.75
2019-05-18T07:46:53.569Z,94994.41
2019-05-18T07:49:20.604Z,94990.83
2019-05-18T07:51:48.717Z,94992.97
2019-05-18T07:57:10.248Z,94989.12
2019-05-18T07:59:37.600Z,94985.16
2019-05-18T08:02:04.941Z,94994.88
2019-05-18T08:04:32.312Z,94995.23
2019-05-18T08:06:59.361Z,94994.05
2019-05-18T08:09:26.715Z,94996.59
2019-05-18T08:11:54.083Z,94999.97
2019-05-18T08:14:21.405Z,94996.97
2019-05-18T08:16:48.455Z,94991.45
2019-05-18T08:19:15.805Z,94987.24
2019-05-18T08:21:52.655Z,94992.72
2019-05-18T08:24:11.618Z,94979.05
2019-05-18T08:26:38.659Z,94980.05
2019-05-18T08:29:05.696Z,94980.28
2019-05-18T08:31:32.746Z,94982.03
2019-05-18T08:33:59.781Z,94976.79
2019-05-18T08:36:26.831Z,94987.13
2019-05-18T08:38:53.868Z,94983.66
2019-05-18T08:41:20.924Z,94979.99
2019-05-18T08:43:48.239Z,94979.76
2019-05-18T08:46:15.591Z,94982.10
2019-05-18T08:48:42.959Z,94972.73
2019-05-18T08:51:10.304Z,94972.94
2019-05-18T08:53:37.344Z,94967.36
2019-05-18T08:56:04.394Z,94964.88
2019-05-18T08:58:31.749Z,94956.77
2019-05-18T09:00:59.109Z,94963.05
2019-05-18T09:03:26.158Z,94961.77
2019-05-18T09:05:53.188Z,94954.73
2019-05-18T09:08:20.239Z,94960.73
2019-05-18T09:10:48.030Z,94957.23
2019-05-18T09:13:15.067Z,94961.16
2019-05-18T09:15:42.106Z,94959.72
2019-05-18T09:18:09.463Z,94961.91
2019-05-18T09:20:37.540Z,94961.23
2019-05-18T09:23:04.997Z,94961.50
2019-05-18T09:25:32.346Z,94961.73
2019-05-18T09:27:59.395Z,94962.63
2019-05-18T09:30:45.009Z,94966.53
2019-05-18T09:33:12.349Z,94961.30
2019-05-18T09:35:39.704Z,94955.59
2019-05-18T09:38:07.042Z,94959.08
2019-05-18T09:40:34.087Z,94948.55
2019-05-18T09:43:01.449Z,94954.87
2019-05-18T09:45:28.481Z,94958.61
2019-05-18T09:47:55.601Z,94953.55
2019-05-18T09:50:24.025Z,94956.97
2019-05-18T09:52:51.078Z,94956.13
2019-05-18T09:55:18.120Z,94954.23
2019-05-18T09:57:45.425Z,94960.70
2019-05-18T10:00:12.746Z,94957.86
2019-05-18T10:02:40.325Z,94959.66
2019-05-18T10:05:07.362Z,94952.73
2019-05-18T10:07:34.709Z,94950.48
2019-05-18T10:10:01.761Z,94957.25
2019-05-18T10:12:29.055Z,94959.52
2019-05-18T10:14:56.095Z,94964.11
2019-05-18T10:17:23.141Z,94956.54
2019-05-18T10:19:51.244Z,94948.77
2019-05-18T10:22:18.632Z,94957.59
2019-05-18T10:24:45.972Z,94956.64
2019-05-18T10:27:13.331Z,94945.84
2019-05-18T10:29:40.696Z,94951.11
2019-05-18T10:32:08.051Z,94952.05
2019-05-18T10:34:35.106Z,94949.33
2019-05-18T10:37:02.429Z,94945.70
2019-05-18T10:39:29.476Z,94947.84
2019-05-18T10:41:56.510Z,94949.16
2019-05-18T10:44:23.568Z,94951.50
2019-05-18T10:46:50.944Z,94951.77
2019-05-18T10:49:19.245Z,94947.80
2019-05-18T10:51:46.277Z,94942.77
2019-05-18T10:54:13.622Z,94937.98
2019-05-18T10:56:40.657Z,94938.53
2019-05-18T10:59:07.706Z,94935.81
2019-05-18T11:01:34.740Z,94947.41
2019-05-18T11:04:01.797Z,94946.05
2019-05-18T11:06:29.166Z,94945.86
2019-05-18T11:08:56.468Z,94944.72
2019-05-18T11:11:23.491Z,94936.15
2019-05-18T11:13:50.821Z,94944.44
2019-05-18T11:16:17.871Z,94950.84
2019-05-18T11:18:45.240Z,94951.25
2019-05-18T11:21:12.525Z,94956.52
2019-05-18T11:23:44.219Z,94946.96
2019-05-18T11:26:08.932Z,94946.00
2019-05-18T11:28:36.296Z,94934.77
2019-05-18T11:31:03.638Z,94931.44
2019-05-18T11:33:30.994Z,94933.52
2019-05-18T11:35:58.369Z,94925.84
2019-05-18T11:38:25.417Z,94920.11
2019-05-18T11:40:52.450Z,94922.91
2019-05-18T11:43:19.497Z,94935.59
2019-05-18T11:45:46.855Z,94932.95
2019-05-18T11:48:15.744Z,94934.03
2019-05-18T11:56:07.063Z,94935.96
2019-05-18T11:58:39.464Z,94930.36
2019-05-18T12:01:07.672Z,94936.77
2019-05-18T12:06:26.879Z,94930.44
2019-05-18T12:08:54.144Z,94931.54
2019-05-18T12:11:22.463Z,94927.87
2019-05-18T12:13:49.723Z,94922.67
2019-05-18T12:19:17.425Z,94928.39
2019-05-18T12:21:46.634Z,94930.09
2019-05-18T12:24:17.288Z,94928.44
2019-05-18T12:26:46.457Z,94928.97
2019-05-18T12:29:18.538Z,94930.53
2019-05-18T12:31:46.971Z,94925.97
2019-05-18T12:34:18.847Z,94926.55
2019-05-18T12:36:57.579Z,94915.55
2019-05-18T12:39:24.749Z,94905.86
2019-05-18T12:44:42.812Z,94911.88
2019-05-18T12:47:29.284Z,94914.34
2019-05-18T12:50:01.995Z,94910.08
2019-05-18T12:52:29.893Z,94919.66
2019-05-18T12:57:47.105Z,94914.84
2019-05-18T13:00:14.712Z,94909.48
2019-05-18T13:02:42.000Z,94908.97
2019-05-18T13:10:31.177Z,94906.33
2019-05-18T13:13:02.589Z,94907.49
2019-05-18T13:18:10.039Z,94906.65
2019-05-18T13:20:37.607Z,94914.45
2019-05-18T13:23:05.796Z,94913.50
2019-05-18T13:31:02.152Z,94918.88
2019-05-18T13:33:36.373Z,94921.11
2019-05-18T13:36:04.821Z,94924.52
2019-05-18T13:38:47.161Z,94950.91
2019-05-18T13:41:15.355Z,94978.22
2019-05-18T13:43:43.612Z,94950.94
2019-05-18T13:46:12.171Z,94937.16
2019-05-18T13:48:39.341Z,94944.45
2019-05-18T13:56:40.745Z,94978.64
2019-05-18T13:59:07.777Z,94967.64
2019-05-18T14:01:37.255Z,94946.77
2019-05-18T14:04:05.022Z,94906.80
2019-05-18T14:06:32.493Z,94907.64
2019-05-18T14:08:59.542Z,94921.14
2019-05-18T14:11:32.921Z,94921.85
2019-05-18T14:14:00.599Z,94917.83
2019-05-18T14:16:27.646Z,94921.45
2019-05-18T14:18:56.975Z,94930.45
2019-05-18T14:21:25.414Z,94922.47
2019-05-18T14:23:52.594Z,94909.16
2019-05-18T14:26:21.810Z,94917.58
2019-05-18T14:28:48.894Z,94925.95
2019-05-18T14:31:16.142Z,94931.95
2019-05-18T14:33:44.616Z,94931.25
2019-05-18T14:36:13.229Z,94915.59
2019-05-18T14:38:40.908Z,94898.44
2019-05-18T14:41:08.355Z,94879.47
2019-05-18T14:43:36.117Z,94861.74
2019-05-18T14:46:03.311Z,94864.22
2019-05-18T14:48:31.471Z,94879.69
2019-05-18T14:50:59.657Z,94888.48
2019-05-18T14:53:27.812Z,94893.07
2019-05-18T14:55:55.260Z,94889.92
2019-05-18T14:58:23.009Z,94887.00
2019-05-18T15:00:50.493Z,94882.30
2019-05-18T15:03:17.650Z,94896.34
2019-05-18T15:05:45.197Z,94897.91
2019-05-18T15:08:12.372Z,94901.17
2019-05-18T15:10:40.403Z,94902.46
2019-05-18T15:13:07.858Z,94903.89
2019-05-18T15:15:35.626Z,94905.48
2019-05-18T15:18:02.841Z,94903.52
2019-05-18T15:20:30.057Z,94907.77
2019-05-18T15:22:58.244Z,94907.92
2019-05-18T15:25:25.479Z,94913.94
2019-05-18T15:27:52.658Z,94926.84
2019-05-18T15:30:38.594Z,94939.17
2019-05-18T15:36:00.078Z,94921.25
2019-05-18T15:41:12.715Z,94907.77
2019-05-18T15:43:39.944Z,94909.87
2019-05-18T15:59:51.192Z,94901.00
2019-05-18T16:02:20.438Z,94900.28
2019-05-18T16:04:58.737Z,94900.22
2019-05-18T16:07:25.997Z,94895.86
2019-05-18T16:09:58.652Z,94896.55
2019-05-18T16:17:48.979Z,94871.34
2019-05-18T16:20:29.233Z,94872.34
2019-05-18T16:23:01.965Z,94876.99
2019-05-18T16:25:42.462Z,94868.18
2019-05-18T16:28:09.659Z,94875.80
2019-05-18T16:30:41.909Z,94875.28
2019-05-18T16:36:00.502Z,94867.15
2019-05-18T16:38:32.561Z,94868.41
2019-05-18T16:41:01.747Z,94864.87
2019-05-18T16:43:29.938Z,94866.42
2019-05-18T16:49:00.160Z,94869.52
2019-05-18T16:51:41.838Z,94870.60
2019-05-18T16:54:12.989Z,94870.72
2019-05-18T16:56:57.354Z,94865.81
2019-05-18T17:04:42.846Z,94870.85
2019-05-18T17:15:24.486Z,94877.75
2019-05-18T17:17:52.076Z,94879.47
2019-05-18T17:25:53.988Z,94884.73
2019-05-18T17:28:26.129Z,94885.29
2019-05-18T17:31:01.180Z,94888.55
2019-05-18T17:33:28.518Z,94888.88
2019-05-18T17:38:49.344Z,94892.59
2019-05-18T17:41:24.707Z,94892.83
2019-05-18T17:43:57.657Z,94892.70
2019-05-18T17:52:04.260Z,94948.55
2019-05-18T18:03:00.554Z,94957.98
2019-05-18T18:05:45.519Z,94966.22
2019-05-18T18:10:49.769Z,94963.14
2019-05-18T18:13:17.974Z,94967.59
2019-05-18T18:15:49.211Z,94965.98
2019-05-18T18:18:17.656Z,94966.41
2019-05-18T18:20:52.627Z,94975.23
2019-05-18T18:23:25.008Z,94980.00
2019-05-18T18:26:10.680Z,94979.63
2019-05-18T18:28:42.657Z,94977.56
2019-05-18T18:31:19.614Z,94979.09
2019-05-18T18:33:46.963Z,94976.71
2019-05-18T18:36:27.132Z,94969.39
2019-05-18T18:41:49.317Z,94962.88
2019-05-18T18:47:03.121Z,94959.72
2019-05-18T18:52:09.554Z,94948.13
2019-05-18T18:57:15.825Z,94957.17
2019-05-18T18:59:49.016Z,94957.81
2019-05-18T19:02:18.219Z,94951.68
2019-05-18T19:10:20.089Z,94952.61
2019-05-18T19:12:59.232Z,94955.37
2019-05-18T19:15:28.547Z,94956.00
2019-05-18T19:18:08.887Z,94963.41
2019-05-18T19:20:37.088Z,94966.66
2019-05-18T19:23:20.366Z,94964.50
2019-05-18T19:25:51.813Z,94968.94
2019-05-18T19:28:29.408Z,94968.64
2019-05-18T19:30:59.960Z,94967.03
2019-05-18T19:38:50.323Z,94970.41
2019-05-18T19:41:17.933Z,94970.03
2019-05-18T19:43:50.141Z,94967.82
2019-05-18T19:51:44.162Z,94971.37
2019-05-18T19:57:03.282Z,94966.63
2019-05-18T19:59:45.407Z,94969.47
2019-05-18T20:05:06.327Z,94971.49
2019-05-18T20:12:35.402Z,94955.17
2019-05-18T20:17:50.289Z,94947.42
2019-05-18T20:20:19.483Z,94943.20
2019-05-18T20:25:50.448Z,94956.39
2019-05-18T20:28:24.818Z,94974.08
2019-05-18T20:30:52.019Z,94967.16
2019-05-18T20:36:07.770Z,94963.22
2019-05-18T20:38:50.998Z,94958.19
2019-05-18T20:41:18.458Z,94966.73
2019-05-18T20:43:58.144Z,94964.54
2019-05-18T20:49:16.971Z,94959.69
2019-05-18T20:59:50.942Z,94947.67
2019-05-18T21:07:51.231Z,94961.16
2019-05-18T21:10:32.720Z,94956.63
2019-05-18T21:23:52.464Z,94947.25
2019-05-18T21:26:20.691Z,94946.80
2019-05-18T21:28:59.157Z,94944.98
2019-05-18T21:31:20.905Z,94947.40
2019-05-18T21:33:51.345Z,94951.33
2019-05-18T21:36:24.524Z,94945.79
2019-05-18T21:38:53.790Z,94945.22
2019-05-18T21:41:20.984Z,94946.59
2019-05-18T21:44:01.317Z,94945.58
2019-05-18T21:49:20.309Z,94944.98
2019-05-18T21:51:47.826Z,94957.73
2019-05-18T21:54:29.340Z,94957.97
2019-05-18T21:57:02.197Z,94958.80
2019-05-18T21:59:29.368Z,94963.81
2019-05-18T22:02:00.432Z,94966.76
2019-05-18T22:04:28.586Z,94961.42
2019-05-18T22:06:55.867Z,94953.78
2019-05-18T22:09:25.095Z,94961.93
2019-05-18T22:11:55.850Z,94957.50
2019-05-18T22:14:28.547Z,94954.17
2019-05-18T22:16:57.874Z,94951.55
2019-05-18T22:19:26.027Z,94947.53
2019-05-18T22:29:56.711Z,94948.37
2019-05-18T22:32:24.913Z,94945.67
2019-05-18T22:34:53.475Z,94945.92
2019-05-18T22:39:54.719Z,94948.58
2019-05-18T22:42:22.942Z,94940.23
2019-05-18T22:44:53.237Z,94946.38
2019-05-18T22:47:21.433Z,94942.25
2019-05-18T22:49:52.042Z,94941.34
2019-05-18T22:52:19.218Z,94942.25
2019-05-18T22:54:46.448Z,94939.53
2019-05-18T22:57:14.620Z,94939.84
2019-05-18T22:59:41.800Z,94945.67
2019-05-18T23:02:11.253Z,94945.97
2019-05-18T23:04:38.705Z,94952.61
2019-05-18T23:07:05.890Z,94960.77
2019-05-18T23:09:38.746Z,94956.44
2019-05-18T23:12:05.780Z,94953.71
2019-05-18T23:14:33.167Z,94956.73
2019-05-18T23:17:00.198Z,94949.98
2019-05-18T23:19:27.556Z,94950.28
2019-05-18T23:21:54.581Z,94943.73
2019-05-18T23:24:21.953Z,94947.66
2019-05-18T23:26:49.324Z,94945.25
2019-05-18T23:29:16.373Z,94942.94
2019-05-18T23:31:43.717Z,94948.48
2019-05-18T23:34:11.080Z,94946.47
2019-05-18T23:36:39.440Z,94936.81
2019-05-18T23:39:06.711Z,94941.88
2019-05-18T23:41:33.995Z,94938.77
2019-05-18T23:44:01.040Z,94938.06
2019-05-18T23:46:28.074Z,94939.37
2019-05-18T23:48:55.120Z,94933.84
2019-05-18T23:51:22.416Z,94932.73
2019-05-18T23:53:49.729Z,94931.22
2019-05-18T23:56:17.018Z,94934.53
2019-05-18T23:58:44.119Z,94933.94
